createdAt,value
2023-01-08T00:01:14.878Z,98786.87
2023-01-08T00:03:50.035Z,98787.18
2023-01-08T00:06:21.236Z,98780.84
2023-01-08T00:08:49.195Z,98773.85
2023-01-08T00:11:17.788Z,98775.61
2023-01-08T00:13:45.727Z,98778.45
2023-01-08T00:16:16.871Z,98782.36
2023-01-08T00:18:46.507Z,98780.23
2023-01-08T00:21:14.426Z,98778.90
2023-01-08T00:23:42.375Z,98777.02
2023-01-08T00:26:11.566Z,98770.66
2023-01-08T00:28:40.290Z,98768.61
2023-01-08T00:31:10.448Z,98773.00
2023-01-08T00:33:38.637Z,98776.89
2023-01-08T00:36:12.588Z,98781.48
2023-01-08T00:38:41.433Z,98776.79
2023-01-08T00:41:09.815Z,98772.31
2023-01-08T00:43:37.738Z,98772.90
2023-01-08T00:46:06.857Z,98772.65
2023-01-08T00:48:38.696Z,98774.45
2023-01-08T00:51:08.704Z,98774.02
2023-01-08T00:53:38.236Z,98767.37
2023-01-08T00:56:09.024Z,98764.76
2023-01-08T00:58:37.359Z,98763.13
2023-01-08T01:01:15.480Z,98766.23
2023-01-08T01:03:43.472Z,98759.98
2023-01-08T01:06:13.272Z,98759.17
2023-01-08T01:08:41.322Z,98763.75
2023-01-08T01:11:20.449Z,98760.34
2023-01-08T01:13:48.629Z,98755.76
2023-01-08T01:16:17.071Z,98756.00
2023-01-08T01:18:45.071Z,98750.32
2023-01-08T01:21:22.976Z,98751.68
2023-01-08T01:23:53.544Z,98752.48
2023-01-08T01:26:22.327Z,98753.54
2023-01-08T01:28:52.625Z,98743.11
2023-01-08T01:31:21.271Z,98745.34
2023-01-08T01:33:49.230Z,98751.64
2023-01-08T01:36:19.298Z,98750.44
2023-01-08T01:38:49.431Z,98751.45
2023-01-08T01:41:29.453Z,98751.72
2023-01-08T01:44:00.542Z,98755.94
2023-01-08T01:46:37.525Z,98754.80
2023-01-08T01:49:15.848Z,98754.02
2023-01-08T01:51:53.613Z,98753.70
2023-01-08T01:54:22.643Z,98752.99
2023-01-08T01:56:50.799Z,98748.15
2023-01-08T01:59:18.748Z,98744.83
2023-01-08T02:01:47.065Z,98747.98
2023-01-08T02:04:15.261Z,98749.19
2023-01-08T02:06:54.530Z,98742.86
2023-01-08T02:09:42.099Z,98734.20
2023-01-08T02:12:31.072Z,98739.27
2023-01-08T02:15:24.329Z,98742.48
2023-01-08T02:18:39.788Z,98740.48
2023-01-08T02:21:16.271Z,98744.39
2023-01-08T02:24:10.451Z,98748.47
2023-01-08T02:26:38.719Z,98745.58
2023-01-08T02:29:10.011Z,98744.91
2023-01-08T02:31:41.056Z,98749.48
2023-01-08T02:34:10.705Z,98748.11
2023-01-08T02:36:52.473Z,98741.84
2023-01-08T02:39:38.339Z,98738.20
2023-01-08T02:42:43.031Z,98733.30
2023-01-08T02:45:25.815Z,98732.68
2023-01-08T02:47:59.754Z,98730.91
2023-01-08T02:50:37.668Z,98727.23
2023-01-08T02:53:19.321Z,98721.67
2023-01-08T02:55:52.290Z,98725.39
2023-01-08T02:58:23.335Z,98720.27
2023-01-08T03:00:52.224Z,98716.41
2023-01-08T03:03:27.222Z,98715.89
2023-01-08T03:06:03.000Z,98715.75
2023-01-08T03:08:34.491Z,98709.80
2023-01-08T03:11:11.797Z,98700.37
2023-01-08T03:13:54.716Z,98685.34
2023-01-08T03:16:49.003Z,98669.96
2023-01-08T03:19:26.090Z,98665.79
2023-01-08T03:21:54.125Z,98661.42
2023-01-08T03:24:25.939Z,98659.29
2023-01-08T03:26:58.530Z,98654.87
2023-01-08T03:29:27.868Z,98651.35
2023-01-08T03:32:03.057Z,98651.37
2023-01-08T03:34:33.070Z,98654.52
2023-01-08T03:37:04.671Z,98655.73
2023-01-08T03:39:45.159Z,98646.31
2023-01-08T03:42:16.584Z,98640.53
2023-01-08T03:44:44.556Z,98648.71
2023-01-08T03:47:14.460Z,98648.39
2023-01-08T03:49:44.476Z,98646.46
2023-01-08T03:52:26.912Z,98649.41
2023-01-08T03:54:55.753Z,98655.68
2023-01-08T03:57:23.722Z,98665.03
2023-01-08T03:59:51.734Z,98668.13
2023-01-08T04:02:19.786Z,98668.72
2023-01-08T04:04:48.314Z,98662.55
2023-01-08T04:07:16.349Z,98661.83
2023-01-08T04:09:44.183Z,98665.46
2023-01-08T04:12:12.164Z,98660.67
2023-01-08T04:14:40.028Z,98653.69
2023-01-08T04:17:12.181Z,98653.71
2023-01-08T04:19:40.016Z,98660.52
2023-01-08T04:22:10.874Z,98664.88
2023-01-08T04:24:38.852Z,98661.84
2023-01-08T04:27:06.726Z,98663.39
2023-01-08T04:29:34.628Z,98662.89
2023-01-08T04:32:02.549Z,98657.46
2023-01-08T04:34:30.431Z,98658.31
2023-01-08T04:36:58.816Z,98655.52
2023-01-08T04:39:26.735Z,98647.39
2023-01-08T04:41:54.660Z,98651.21
2023-01-08T04:44:22.891Z,98654.20
2023-01-08T04:46:50.805Z,98653.93
2023-01-08T04:49:18.935Z,98653.14
2023-01-08T04:51:46.878Z,98659.27
2023-01-08T04:54:14.804Z,98660.56
2023-01-08T04:56:42.646Z,98656.96
2023-01-08T04:59:10.536Z,98653.16
2023-01-08T05:01:38.558Z,98652.29
2023-01-08T05:04:06.472Z,98650.41
2023-01-08T05:06:34.353Z,98650.10
2023-01-08T05:09:02.939Z,98635.27
2023-01-08T05:11:30.844Z,98626.84
2023-01-08T05:13:58.710Z,98620.64
2023-01-08T05:16:26.585Z,98619.56
2023-01-08T05:18:54.403Z,98616.42
2023-01-08T05:21:22.292Z,98608.41
2023-01-08T05:24:22.455Z,98599.20
2023-01-08T05:26:50.331Z,98596.52
2023-01-08T05:29:18.404Z,98592.36
2023-01-08T05:31:46.400Z,98592.02
2023-01-08T05:34:14.285Z,98581.92
2023-01-08T05:36:43.318Z,98576.70
2023-01-08T05:39:11.280Z,98575.23
2023-01-08T05:41:39.547Z,98567.61
2023-01-08T05:44:07.657Z,98564.54
2023-01-08T05:46:35.802Z,98562.88
2023-01-08T05:49:03.889Z,98564.15
2023-01-08T05:51:31.778Z,98563.02
2023-01-08T05:53:59.650Z,98559.58
2023-01-08T05:56:27.549Z,98559.26
2023-01-08T05:58:56.054Z,98560.13
2023-01-08T06:01:24.025Z,98562.20
2023-01-08T06:03:56.053Z,98562.77
2023-01-08T06:06:24.049Z,98546.38
2023-01-08T06:08:52.148Z,98544.77
2023-01-08T06:11:20.120Z,98542.52
2023-01-08T06:13:48.162Z,98532.76
2023-01-08T06:16:17.587Z,98540.94
2023-01-08T06:18:45.759Z,98547.25
2023-01-08T06:21:13.927Z,98548.65
2023-01-08T06:23:41.911Z,98552.20
2023-01-08T06:26:10.216Z,98550.66
2023-01-08T06:28:38.228Z,98548.27
2023-01-08T06:31:06.268Z,98546.23
2023-01-08T06:33:34.245Z,98548.56
2023-01-08T06:36:04.633Z,98550.54
2023-01-08T06:38:34.753Z,98548.85
2023-01-08T06:41:08.608Z,98548.54
2023-01-08T06:43:37.869Z,98552.88
2023-01-08T06:46:07.114Z,98560.92
2023-01-08T06:48:35.931Z,98562.21
2023-01-08T06:51:04.978Z,98564.33
2023-01-08T06:53:32.972Z,98562.77
2023-01-08T06:56:03.343Z,98560.31
2023-01-08T06:58:31.576Z,98566.56
2023-01-08T07:00:59.658Z,98564.13
2023-01-08T07:03:27.712Z,98565.35
2023-01-08T07:05:56.632Z,98555.60
2023-01-08T07:08:24.783Z,98544.73
2023-01-08T07:10:52.696Z,98536.09
2023-01-08T07:13:22.765Z,98530.80
2023-01-08T07:15:50.852Z,98528.12
2023-01-08T07:18:18.950Z,98525.29
2023-01-08T07:20:48.850Z,98523.13
2023-01-08T07:23:16.810Z,98523.44
2023-01-08T07:25:44.805Z,98518.30
2023-01-08T07:28:13.362Z,98517.42
2023-01-08T07:30:41.520Z,98518.04
2023-01-08T07:33:09.511Z,98512.59
2023-01-08T07:35:39.079Z,98515.76
2023-01-08T07:38:07.185Z,98516.75
2023-01-08T07:40:35.269Z,98518.02
2023-01-08T07:43:04.833Z,98518.59
2023-01-08T07:45:32.927Z,98522.11
2023-01-08T07:48:00.989Z,98517.98
2023-01-08T07:50:29.360Z,98513.56
2023-01-08T07:53:01.498Z,98512.96
2023-01-08T07:55:30.936Z,98509.19
2023-01-08T07:57:59.430Z,98502.38
2023-01-08T08:00:27.611Z,98495.61
2023-01-08T08:02:55.689Z,98477.23
2023-01-08T08:05:23.985Z,98467.27
2023-01-08T08:07:51.902Z,98470.88
2023-01-08T08:10:19.879Z,98481.80
2023-01-08T08:12:48.000Z,98481.66
2023-01-08T08:15:16.089Z,98474.33
2023-01-08T08:17:47.905Z,98472.89
2023-01-08T08:20:16.285Z,98472.77
2023-01-08T08:22:44.853Z,98479.55
2023-01-08T08:25:15.311Z,98479.93
2023-01-08T08:27:44.114Z,98476.52
2023-01-08T08:30:13.144Z,98473.23
2023-01-08T08:32:41.095Z,98477.73
2023-01-08T08:35:09.864Z,98478.73
2023-01-08T08:37:37.861Z,98473.73
2023-01-08T08:40:06.496Z,98472.77
2023-01-08T08:42:34.476Z,98481.29
2023-01-08T08:45:02.532Z,98483.71
2023-01-08T08:47:30.525Z,98480.55
2023-01-08T08:49:58.540Z,98478.06
2023-01-08T08:52:26.434Z,98480.80
2023-01-08T08:54:54.335Z,98478.41
2023-01-08T08:57:25.999Z,98476.52
2023-01-08T08:59:53.965Z,98472.04
2023-01-08T09:02:22.151Z,98473.52
2023-01-08T09:04:50.240Z,98475.02
2023-01-08T09:07:18.271Z,98478.15
2023-01-08T09:09:46.282Z,98477.28
2023-01-08T09:12:14.253Z,98469.45
2023-01-08T09:14:42.253Z,98468.52
2023-01-08T09:17:10.255Z,98467.03
2023-01-08T09:19:38.877Z,98467.46
2023-01-08T09:22:06.988Z,98468.86
2023-01-08T09:24:34.894Z,98469.84
2023-01-08T09:27:03.025Z,98468.55
2023-01-08T09:29:31.000Z,98463.15
2023-01-08T09:32:00.619Z,98460.98
2023-01-08T09:34:29.973Z,98452.27
2023-01-08T09:36:57.925Z,98449.08
2023-01-08T09:39:25.855Z,98445.33
2023-01-08T09:41:55.319Z,98442.20
2023-01-08T09:44:29.904Z,98438.67
2023-01-08T09:46:58.698Z,98442.38
2023-01-08T09:49:38.676Z,98445.19
2023-01-08T09:52:09.317Z,98442.64
2023-01-08T09:54:37.287Z,98446.42
2023-01-08T09:57:05.608Z,98446.80
2023-01-08T09:59:33.697Z,98441.67
2023-01-08T10:02:01.768Z,98437.55
2023-01-08T10:04:30.147Z,98436.40
2023-01-08T10:07:11.791Z,98428.52
2023-01-08T10:09:40.314Z,98428.29
2023-01-08T10:12:12.785Z,98425.02
2023-01-08T10:14:48.118Z,98421.89
2023-01-08T10:17:37.471Z,98422.09
2023-01-08T10:20:20.904Z,98418.17
2023-01-08T10:22:50.055Z,98415.19
2023-01-08T10:25:23.271Z,98414.14
2023-01-08T10:28:00.155Z,98407.53
2023-01-08T10:30:30.828Z,98398.25
2023-01-08T10:33:06.516Z,98391.55
2023-01-08T10:35:40.826Z,98378.88
2023-01-08T10:38:32.785Z,98377.73
2023-01-08T10:41:09.229Z,98375.95
2023-01-08T10:43:49.670Z,98377.19
2023-01-08T10:46:36.570Z,98382.48
2023-01-08T10:49:06.549Z,98391.30
2023-01-08T10:51:34.635Z,98387.78
2023-01-08T10:54:15.545Z,98383.06
2023-01-08T10:56:44.952Z,98383.99
2023-01-08T10:59:23.293Z,98387.69
2023-01-08T11:01:55.912Z,98385.10
2023-01-08T11:04:32.498Z,98392.56
2023-01-08T11:07:03.121Z,98389.44
2023-01-08T11:09:34.097Z,98391.97
2023-01-08T11:12:02.091Z,98385.78
2023-01-08T11:14:36.544Z,98382.41
2023-01-08T11:17:11.291Z,98383.88
2023-01-08T11:19:39.988Z,98388.13
2023-01-08T11:22:20.176Z,98399.30
2023-01-08T11:24:50.363Z,98406.32
2023-01-08T11:27:37.060Z,98397.72
2023-01-08T11:30:12.222Z,98392.02
2023-01-08T11:32:42.118Z,98393.20
2023-01-08T11:35:31.353Z,98398.47
2023-01-08T11:38:02.205Z,98398.86
2023-01-08T11:40:36.181Z,98398.17
2023-01-08T11:43:30.716Z,98383.73
2023-01-08T11:46:17.816Z,98371.60
2023-01-08T11:48:51.673Z,98376.16
2023-01-08T11:51:41.538Z,98376.82
2023-01-08T11:54:47.189Z,98369.96
2023-01-08T11:57:33.722Z,98365.45
2023-01-08T12:00:38.231Z,98357.11
2023-01-08T12:03:26.230Z,98347.05
2023-01-08T12:06:44.165Z,98349.82
2023-01-08T12:09:36.480Z,98355.65
2023-01-08T12:12:33.287Z,98353.14
2023-01-08T12:15:10.233Z,98351.04
2023-01-08T12:18:13.532Z,98349.14
2023-01-08T12:20:59.318Z,98346.09
2023-01-08T12:23:45.692Z,98345.68
2023-01-08T12:26:25.930Z,98352.45
2023-01-08T12:29:15.317Z,98359.86
2023-01-08T12:32:22.212Z,98355.45
2023-01-08T12:35:29.414Z,98354.29
2023-01-08T12:38:29.718Z,98355.48
2023-01-08T12:41:21.100Z,98356.68
2023-01-08T12:44:05.643Z,98349.67
2023-01-08T12:46:39.514Z,98343.57
2023-01-08T12:49:11.131Z,98345.20
2023-01-08T12:51:56.272Z,98347.02
2023-01-08T12:54:26.981Z,98349.25
2023-01-08T12:57:03.877Z,98345.30
2023-01-08T12:59:45.578Z,98340.98
2023-01-08T13:02:49.822Z,98334.27
2023-01-08T13:05:21.018Z,98335.83
2023-01-08T13:07:53.948Z,98333.04
2023-01-08T13:10:37.167Z,98325.89
2023-01-08T13:13:07.429Z,98324.83
2023-01-08T13:15:36.452Z,98319.30
2023-01-08T13:18:15.322Z,98316.25
2023-01-08T13:20:54.154Z,98306.02
2023-01-08T13:23:26.170Z,98291.59
2023-01-08T13:25:57.348Z,98284.23
2023-01-08T13:28:25.181Z,98279.54
2023-01-08T13:30:55.826Z,98278.20
2023-01-08T13:33:36.242Z,98278.13
2023-01-08T13:36:13.120Z,98284.34
2023-01-08T13:38:41.275Z,98285.44
2023-01-08T13:41:56.634Z,98291.40
2023-01-08T13:44:34.564Z,98286.52
2023-01-08T13:47:15.632Z,98275.52
2023-01-08T13:49:47.155Z,98269.48
2023-01-08T13:52:41.125Z,98273.81
2023-01-08T13:55:36.968Z,98275.25
2023-01-08T13:58:12.161Z,98283.10
2023-01-08T14:00:43.064Z,98287.27
2023-01-08T14:03:31.410Z,98284.05
2023-01-08T14:06:22.749Z,98283.51
2023-01-08T14:08:59.120Z,98278.94
2023-01-08T14:11:42.544Z,98275.63
2023-01-08T14:14:16.176Z,98272.64
2023-01-08T14:16:45.156Z,98270.91
2023-01-08T14:19:22.481Z,98271.05
2023-01-08T14:21:52.545Z,98273.65
2023-01-08T14:24:23.555Z,98279.03
2023-01-08T14:26:57.644Z,98275.71
2023-01-08T14:29:32.904Z,98280.04
2023-01-08T14:32:01.482Z,98278.63
2023-01-08T14:34:31.891Z,98268.75
2023-01-08T14:36:59.807Z,98261.50
2023-01-08T14:39:35.602Z,98249.23
2023-01-08T14:42:29.219Z,98241.33
2023-01-08T14:45:00.182Z,98235.69
2023-01-08T14:47:39.066Z,98235.54
2023-01-08T14:50:07.933Z,98234.67
2023-01-08T14:52:40.541Z,98237.52
2023-01-08T14:55:15.476Z,98240.27
2023-01-08T14:57:45.901Z,98251.29
2023-01-08T15:00:21.463Z,98255.35
2023-01-08T15:02:49.880Z,98248.85
2023-01-08T15:05:26.003Z,98248.38
2023-01-08T15:08:25.130Z,98251.02
2023-01-08T15:11:02.299Z,98240.58
2023-01-08T15:13:34.624Z,98240.23
2023-01-08T15:16:11.533Z,98240.40
2023-01-08T15:18:46.078Z,98239.73
2023-01-08T15:21:22.439Z,98236.70
2023-01-08T15:23:54.782Z,98231.92
2023-01-08T15:26:23.592Z,98228.73
2023-01-08T15:28:53.826Z,98232.52
2023-01-08T15:31:30.480Z,98232.55
2023-01-08T15:34:00.553Z,98231.80
2023-01-08T15:36:28.482Z,98237.96
2023-01-08T15:38:56.313Z,98243.58
2023-01-08T15:41:43.058Z,98247.70
2023-01-08T15:44:15.293Z,98252.30
2023-01-08T15:46:43.288Z,98252.77
2023-01-08T15:49:11.208Z,98264.27
2023-01-08T15:51:45.259Z,98264.41
2023-01-08T15:54:13.797Z,98258.56
2023-01-08T15:56:41.905Z,98259.75
2023-01-08T15:59:09.961Z,98260.95
2023-01-08T16:01:38.568Z,98263.55
2023-01-08T16:04:06.581Z,98263.73
2023-01-08T16:06:36.174Z,98258.52
2023-01-08T16:09:04.087Z,98255.00
2023-01-08T16:11:32.000Z,98255.48
2023-01-08T16:13:59.887Z,98253.17
2023-01-08T16:16:27.827Z,98247.55
2023-01-08T16:18:55.890Z,98247.02
2023-01-08T16:21:23.767Z,98251.98
2023-01-08T16:23:51.631Z,98249.63
2023-01-08T16:26:19.615Z,98247.23
2023-01-08T16:28:47.954Z,98230.72
2023-01-08T16:31:16.168Z,98226.98
2023-01-08T16:33:44.056Z,98223.63
2023-01-08T16:36:11.940Z,98230.80
2023-01-08T16:38:39.800Z,98222.89
2023-01-08T16:41:08.044Z,98221.28
2023-01-08T16:43:40.842Z,98224.40
2023-01-08T16:46:13.330Z,98227.49
2023-01-08T16:48:42.602Z,98225.69
2023-01-08T16:51:11.331Z,98229.08
2023-01-08T16:53:39.803Z,98234.98
2023-01-08T16:56:09.177Z,98235.64
2023-01-08T16:58:37.172Z,98236.85
2023-01-08T17:01:12.402Z,98235.83
2023-01-08T17:03:40.555Z,98229.49
2023-01-08T17:06:11.288Z,98228.79
2023-01-08T17:08:42.455Z,98227.29
2023-01-08T17:11:15.151Z,98227.34
2023-01-08T17:13:43.564Z,98229.69
2023-01-08T17:16:14.551Z,98224.33
2023-01-08T17:18:42.716Z,98222.63
2023-01-08T17:21:13.320Z,98217.38
2023-01-08T17:23:41.768Z,98216.14
2023-01-08T17:26:13.886Z,98217.02
2023-01-08T17:28:41.797Z,98213.87
2023-01-08T17:31:12.683Z,98218.06
2023-01-08T17:33:40.900Z,98218.05
2023-01-08T17:36:11.053Z,98220.31
2023-01-08T17:38:39.375Z,98220.63
2023-01-08T17:41:09.206Z,98217.70
2023-01-08T17:43:38.495Z,98218.05
2023-01-08T17:46:07.351Z,98219.25
2023-01-08T17:48:35.339Z,98221.27
2023-01-08T17:51:08.598Z,98219.61
2023-01-08T17:53:37.217Z,98225.66
2023-01-08T17:56:06.459Z,98232.92
2023-01-08T17:58:34.681Z,98231.42
2023-01-08T18:01:02.593Z,98231.36
2023-01-08T18:03:30.529Z,98238.23
2023-01-08T18:05:58.508Z,98243.63
2023-01-08T18:08:26.578Z,98249.41
2023-01-08T18:10:54.398Z,98247.16
2023-01-08T18:13:22.400Z,98249.94
2023-01-08T18:15:50.272Z,98257.27
2023-01-08T18:18:18.107Z,98263.50
2023-01-08T18:20:45.929Z,98257.70
2023-01-08T18:23:13.736Z,98256.42
2023-01-08T18:25:41.672Z,98252.65
2023-01-08T18:28:09.576Z,98252.89
2023-01-08T18:30:37.653Z,98248.15
2023-01-08T18:33:05.650Z,98243.05
2023-01-08T18:35:33.575Z,98243.27
2023-01-08T18:38:01.540Z,98236.10
2023-01-08T18:40:29.835Z,98235.98
2023-01-08T18:42:57.753Z,98238.50
2023-01-08T18:45:25.610Z,98234.36
2023-01-08T18:47:53.800Z,98231.27
2023-01-08T18:50:21.739Z,98230.52
2023-01-08T18:52:49.640Z,98226.70
2023-01-08T18:55:17.565Z,98216.64
2023-01-08T18:57:45.530Z,98209.48
2023-01-08T19:00:13.951Z,98204.21
2023-01-08T19:02:41.815Z,98199.92
2023-01-08T19:05:10.359Z,98195.48
2023-01-08T19:07:38.448Z,98193.56
2023-01-08T19:10:06.519Z,98186.56
2023-01-08T19:12:35.131Z,98177.16
2023-01-08T19:15:03.158Z,98170.48
2023-01-08T19:17:31.922Z,98166.11
2023-01-08T19:20:00.039Z,98157.71
2023-01-08T19:22:28.696Z,98151.94
2023-01-08T19:24:56.823Z,98148.58
2023-01-08T19:27:24.996Z,98140.15
2023-01-08T19:29:52.957Z,98141.39
2023-01-08T19:32:21.060Z,98142.30
2023-01-08T19:34:49.007Z,98144.58
2023-01-08T19:37:17.206Z,98140.00
2023-01-08T19:39:45.482Z,98136.52
2023-01-08T19:42:51.541Z,98131.05
2023-01-08T19:45:19.541Z,98119.17
2023-01-08T19:47:47.417Z,98114.00
2023-01-08T19:50:15.356Z,98101.96
2023-01-08T19:52:43.408Z,98090.07
2023-01-08T19:55:11.358Z,98087.59
2023-01-08T19:57:39.247Z,98083.35
2023-01-08T20:00:07.976Z,98076.38
2023-01-08T20:02:39.771Z,98068.20
2023-01-08T20:05:09.296Z,98062.83
2023-01-08T20:07:37.252Z,98056.86
2023-01-08T20:10:05.977Z,98054.82
2023-01-08T20:12:36.263Z,98054.05
2023-01-08T20:15:05.656Z,98050.55
2023-01-08T20:17:33.593Z,98053.17
2023-01-08T20:20:01.493Z,98052.25
2023-01-08T20:22:31.129Z,98042.70
2023-01-08T20:24:59.063Z,98040.30
2023-01-08T20:27:27.045Z,98040.88
2023-01-08T20:29:55.015Z,98038.02
2023-01-08T20:32:23.597Z,98038.71
2023-01-08T20:34:51.538Z,98038.30
2023-01-08T20:37:19.485Z,98033.62
2023-01-08T20:39:47.562Z,98026.80
2023-01-08T20:42:22.004Z,98018.23
2023-01-08T20:44:55.445Z,98021.30
2023-01-08T20:47:23.558Z,98023.98
2023-01-08T20:49:51.583Z,98023.60
2023-01-08T20:52:21.859Z,98023.61
2023-01-08T20:54:49.776Z,98032.16
2023-01-08T20:57:17.732Z,98036.46
2023-01-08T20:59:45.711Z,98034.00
2023-01-08T21:02:13.830Z,98033.91
2023-01-08T21:04:43.769Z,98030.30
2023-01-08T21:07:12.135Z,98028.13
2023-01-08T21:09:40.483Z,98029.98
2023-01-08T21:12:08.664Z,98027.98
2023-01-08T21:14:36.587Z,98026.81
2023-01-08T21:17:04.624Z,98025.29
2023-01-08T21:19:32.542Z,98023.75
2023-01-08T21:22:00.403Z,98019.97
2023-01-08T21:24:28.400Z,98023.29
2023-01-08T21:26:56.382Z,98026.48
2023-01-08T21:29:24.847Z,98017.17
2023-01-08T21:31:52.775Z,98015.38
2023-01-08T21:34:21.553Z,98009.80
2023-01-08T21:36:49.511Z,98002.64
2023-01-08T21:39:17.480Z,97997.08
2023-01-08T21:42:03.732Z,97992.52
2023-01-08T21:44:50.584Z,97988.37
2023-01-08T21:47:18.604Z,97986.10
2023-01-08T21:49:46.595Z,97975.73
2023-01-08T21:52:33.614Z,97962.61
2023-01-08T21:55:02.091Z,97958.95
2023-01-08T21:57:30.069Z,97956.00
2023-01-08T21:59:58.028Z,97952.45
2023-01-08T22:02:25.939Z,97946.00
2023-01-08T22:04:56.026Z,97941.41
2023-01-08T22:07:25.203Z,97943.23
2023-01-08T22:09:53.350Z,97947.70
2023-01-08T22:12:22.926Z,97953.06
2023-01-08T22:14:53.530Z,97955.72
2023-01-08T22:17:26.044Z,97953.95
2023-01-08T22:19:54.069Z,97950.22
2023-01-08T22:22:22.085Z,97947.13
2023-01-08T22:24:53.096Z,97941.80
2023-01-08T22:27:22.155Z,97946.98
2023-01-08T22:29:50.260Z,97950.38
2023-01-08T22:32:18.258Z,97951.73
2023-01-08T22:34:46.509Z,97954.09
2023-01-08T22:37:14.484Z,97956.61
2023-01-08T22:39:42.461Z,97954.58
2023-01-08T22:42:10.417Z,97951.32
2023-01-08T22:44:38.356Z,97949.48
2023-01-08T22:47:08.457Z,97945.02
2023-01-08T22:49:37.754Z,97937.63
2023-01-08T22:52:06.314Z,97922.16
2023-01-08T22:54:34.207Z,97910.02
2023-01-08T22:57:02.093Z,97900.67
2023-01-08T22:59:29.947Z,97904.23
2023-01-08T23:01:57.863Z,97904.23
2023-01-08T23:04:26.044Z,97902.05
2023-01-08T23:06:53.957Z,97898.55
2023-01-08T23:09:21.861Z,97894.29
2023-01-08T23:11:49.704Z,97890.81
2023-01-08T23:14:17.607Z,97886.05
2023-01-08T23:16:45.695Z,97877.34
2023-01-08T23:19:14.042Z,97871.63
2023-01-08T23:21:42.024Z,97869.80
2023-01-08T23:24:13.164Z,97873.45
2023-01-08T23:26:42.255Z,97866.56
2023-01-08T23:29:10.861Z,97856.47
2023-01-08T23:31:39.103Z,97860.48
2023-01-08T23:34:07.615Z,97856.87
2023-01-08T23:36:35.529Z,97860.81
2023-01-08T23:39:04.367Z,97864.40
2023-01-08T23:41:34.917Z,97866.48
2023-01-08T23:44:14.830Z,97860.73
2023-01-08T23:46:43.053Z,97852.81
2023-01-08T23:49:11.711Z,97853.91
2023-01-08T23:51:42.293Z,97860.23
2023-01-08T23:54:11.479Z,97868.56
2023-01-08T23:56:40.428Z,97870.52
2023-01-08T23:59:08.426Z,97867.44
